Time;durP1;ratioP1;P1;durP2;ratioP2;P2;SDS_P1;SDS_P2;PMS_P1;PMS_P2;Temp;Humidity;BMP_temperature;BMP_pressure;BME280_temperature;BME280_humidity;BME280_pressure;Samples;Min_cycle;Max_cycle;Signal;HPM_P1;HPM_P2
2021/06/09 00:02:18;;;;;;;5.93;5.32;;;18.60;82.70;;;;;;4758872;29;20053;-85
2021/06/09 00:04:45;;;;;;;6.68;5.85;;;18.50;82.80;;;;;;4805406;29;20043;-85
2021/06/09 00:07:12;;;;;;;8.40;5.38;;;18.50;83.10;;;;;;4768001;29;20085;-85
2021/06/09 00:09:39;;;;;;;8.38;5.47;;;18.50;83.10;;;;;;4765276;29;20046;-85
2021/06/09 00:12:06;;;;;;;6.65;5.63;;;18.50;83.40;;;;;;4787390;29;20062;-85
2021/06/09 00:14:32;;;;;;;5.95;5.45;;;18.50;83.60;;;;;;4779214;29;20054;-86
2021/06/09 00:16:59;;;;;;;6.60;5.93;;;18.40;83.70;;;;;;4769703;29;20047;-86
2021/06/09 00:19:27;;;;;;;6.57;5.57;;;18.40;84.00;;;;;;4768730;29;20411;-86
2021/06/09 00:21:56;;;;;;;6.32;5.72;;;18.40;84.20;;;;;;4786346;29;20057;-85
2021/06/09 00:24:23;;;;;;;5.90;5.35;;;18.30;84.40;;;;;;4753952;29;20047;-85
2021/06/09 00:26:51;;;;;;;7.85;6.15;;;18.30;84.60;;;;;;4798761;29;20071;-85
2021/06/09 00:29:20;;;;;;;6.70;5.88;;;18.30;84.80;;;;;;4786081;29;20087;-85
2021/06/09 00:31:47;;;;;;;7.35;6.25;;;18.20;84.90;;;;;;4786689;29;20530;-85
2021/06/09 00:34:15;;;;;;;8.40;7.25;;;18.20;85.00;;;;;;4771116;29;20047;-85
2021/06/09 00:36:41;;;;;;;6.95;6.25;;;18.20;85.20;;;;;;4787056;29;20509;-84
2021/06/09 00:39:08;;;;;;;7.88;6.25;;;18.20;85.30;;;;;;4788354;29;20043;-84
2021/06/09 00:41:36;;;;;;;7.75;6.55;;;18.20;85.50;;;;;;4772935;29;20050;-84
2021/06/09 00:44:05;;;;;;;7.35;6.13;;;18.10;85.70;;;;;;4777916;29;20459;-84
2021/06/09 00:46:34;;;;;;;6.63;6.03;;;18.10;85.70;;;;;;4797516;29;20043;-85
2021/06/09 00:49:01;;;;;;;7.25;6.55;;;18.10;85.80;;;;;;4803363;29;20509;-85
2021/06/09 00:51:28;;;;;;;6.68;5.97;;;18.10;85.90;;;;;;4784062;29;20065;-84
2021/06/09 00:53:58;;;;;;;6.45;5.78;;;18.10;85.90;;;;;;4796374;29;20058;-84
2021/06/09 00:56:26;;;;;;;8.43;6.53;;;18.00;86.30;;;;;;4766546;29;21249;-84
2021/06/09 00:58:53;;;;;;;7.30;6.60;;;18.00;86.40;;;;;;4782344;29;20047;-84
2021/06/09 01:01:23;;;;;;;6.45;5.85;;;18.00;87.00;;;;;;4809354;29;20035;-89
2021/06/09 01:03:51;;;;;;;6.57;5.97;;;18.00;86.60;;;;;;4808583;29;20047;-87
2021/06/09 01:06:19;;;;;;;7.18;6.47;;;18.00;86.70;;;;;;4793478;29;20276;-87
2021/06/09 01:08:47;;;;;;;6.47;5.88;;;17.90;86.90;;;;;;4799594;29;20443;-89
2021/06/09 01:11:16;;;;;;;7.28;6.63;;;17.90;87.70;;;;;;4782949;29;20047;-89
2021/06/09 01:13:44;;;;;;;11.02;8.35;;;17.90;87.60;;;;;;4781572;29;20039;-89
2021/06/09 01:16:11;;;;;;;7.85;7.15;;;17.90;87.80;;;;;;4785626;29;20046;-90
2021/06/09 01:18:38;;;;;;;19.95;14.70;;;17.90;88.00;;;;;;4772682;29;20050;-89
2021/06/09 01:21:05;;;;;;;16.23;13.93;;;17.80;88.20;;;;;;4782325;29;20039;-88
2021/06/09 01:23:32;;;;;;;27.65;21.77;;;17.80;88.30;;;;;;4767712;29;20054;-89
2021/06/09 01:26:00;;;;;;;40.17;33.30;;;17.80;88.50;;;;;;4796454;29;20035;-89
2021/06/09 01:28:26;;;;;;;21.45;17.05;;;17.80;88.70;;;;;;4753325;29;20403;-88
2021/06/09 01:30:53;;;;;;;16.25;14.25;;;17.80;89.00;;;;;;4776753;29;20058;-88
2021/06/09 01:33:22;;;;;;;10.95;9.75;;;17.80;89.30;;;;;;4750524;29;20050;-89
2021/06/09 01:35:53;;;;;;;10.68;8.63;;;17.80;89.40;;;;;;4788661;29;20101;-89
2021/06/09 01:38:21;;;;;;;9.13;8.18;;;17.70;89.40;;;;;;4794436;29;20058;-89
2021/06/09 01:40:48;;;;;;;8.85;7.38;;;17.70;89.40;;;;;;4777380;29;20039;-89
2021/06/09 01:43:15;;;;;;;8.73;7.32;;;17.70;89.50;;;;;;4766964;29;20054;-89
2021/06/09 01:45:42;;;;;;;8.10;7.28;;;17.70;89.80;;;;;;4798638;29;20537;-89
2021/06/09 01:48:09;;;;;;;9.65;8.27;;;17.70;89.80;;;;;;4758875;29;20062;-89
2021/06/09 01:50:37;;;;;;;8.63;7.85;;;17.60;90.00;;;;;;4794752;29;20049;-89
2021/06/09 01:53:04;;;;;;;8.50;7.60;;;17.60;90.10;;;;;;4793115;29;20042;-89
2021/06/09 01:55:34;;;;;;;8.30;7.50;;;17.60;90.30;;;;;;4779404;29;20046;-89
2021/06/09 01:58:01;;;;;;;8.68;7.82;;;17.60;90.40;;;;;;4760650;29;20051;-82
2021/06/09 02:00:31;;;;;;;8.88;8.02;;;17.60;90.50;;;;;;4791596;29;20046;-82
2021/06/09 02:02:59;;;;;;;9.40;8.50;;;17.50;90.60;;;;;;4787013;29;20093;-82
2021/06/09 02:05:28;;;;;;;8.43;7.63;;;17.50;90.60;;;;;;4755994;29;20050;-83
2021/06/09 02:07:59;;;;;;;7.82;6.53;;;17.50;91.00;;;;;;4800695;29;20054;-82
2021/06/09 02:10:27;;;;;;;8.35;7.63;;;17.50;90.80;;;;;;4779542;29;20050;-83
2021/06/09 02:12:57;;;;;;;8.88;7.97;;;17.40;90.80;;;;;;4774354;29;20046;-82
2021/06/09 02:15:24;;;;;;;8.15;7.35;;;17.40;90.90;;;;;;4782281;29;20050;-82
2021/06/09 02:17:57;;;;;;;8.65;7.75;;;17.40;90.80;;;;;;4788040;29;20486;-82
2021/06/09 02:20:25;;;;;;;8.52;7.72;;;17.40;90.90;;;;;;4761124;29;20504;-83
2021/06/09 02:22:53;;;;;;;8.15;7.38;;;17.30;91.00;;;;;;4790240;29;20042;-82
2021/06/09 02:25:20;;;;;;;9.05;8.07;;;17.40;91.10;;;;;;4772524;29;20482;-82
2021/06/09 02:27:47;;;;;;;9.68;7.82;;;17.30;91.10;;;;;;4779814;29;20063;-82
2021/06/09 02:30:16;;;;;;;10.25;8.65;;;17.30;91.10;;;;;;4810086;29;20042;-82
2021/06/09 02:32:45;;;;;;;8.25;7.43;;;17.30;91.10;;;;;;4788312;29;20046;-83
2021/06/09 02:35:17;;;;;;;9.63;8.63;;;17.30;91.20;;;;;;4791538;29;20054;-82
2021/06/09 02:37:48;;;;;;;8.60;7.72;;;17.30;91.20;;;;;;4774191;29;20383;-83
2021/06/09 02:40:15;;;;;;;9.95;8.65;;;17.30;91.20;;;;;;4807296;29;20564;-82
2021/06/09 02:42:41;;;;;;;9.43;8.48;;;17.20;91.20;;;;;;4805605;29;20497;-83
2021/06/09 02:45:17;;;;;;;9.45;8.48;;;17.20;91.30;;;;;;4810019;29;20583;-83
2021/06/09 02:47:48;;;;;;;9.10;8.20;;;17.20;91.50;;;;;;4776217;29;20046;-83
2021/06/09 02:50:18;;;;;;;8.88;8.02;;;17.20;91.40;;;;;;4806392;29;20501;-83
2021/06/09 02:52:52;;;;;;;9.27;8.38;;;17.10;91.50;;;;;;4794121;29;20046;-82
2021/06/09 02:55:39;;;;;;;8.38;7.53;;;17.10;91.60;;;;;;4793645;29;20038;-83
2021/06/09 02:58:43;;;;;;;9.70;8.75;;;17.10;91.70;;;;;;4794899;29;20439;-82
2021/06/09 03:01:13;;;;;;;9.30;8.38;;;17.00;91.70;;;;;;4750972;29;20062;-83
2021/06/09 03:04:09;;;;;;;11.70;9.50;;;17.00;91.60;;;;;;4782112;29;20050;-83
2021/06/09 03:06:44;;;;;;;9.88;8.88;;;17.00;91.80;;;;;;4790189;29;20038;-83
2021/06/09 03:09:29;;;;;;;10.02;9.00;;;17.00;91.80;;;;;;4794121;29;20038;-83
2021/06/09 03:12:06;;;;;;;10.05;8.98;;;17.00;91.90;;;;;;4796778;29;20057;-83
2021/06/09 03:15:11;;;;;;;10.77;9.60;;;16.90;91.80;;;;;;4782657;29;20524;-83
2021/06/09 03:17:55;;;;;;;11.48;10.32;;;16.90;92.00;;;;;;4805156;29;20049;-83
2021/06/09 03:20:50;;;;;;;9.68;8.68;;;16.90;92.00;;;;;;4794372;29;20052;-83
2021/06/09 03:23:44;;;;;;;10.00;8.98;;;16.90;92.00;;;;;;4781218;29;20505;-84
2021/06/09 03:26:30;;;;;;;9.88;8.82;;;16.90;92.00;;;;;;4789952;29;20061;-82
2021/06/09 03:29:07;;;;;;;9.23;8.32;;;16.90;92.00;;;;;;4784283;29;20058;-83
2021/06/09 03:31:41;;;;;;;11.02;9.93;;;16.80;92.10;;;;;;4809342;29;20425;-83
2021/06/09 03:34:16;;;;;;;11.55;9.88;;;16.80;92.10;;;;;;4812305;29;20030;-83
2021/06/09 03:36:45;;;;;;;11.73;10.52;;;16.80;92.10;;;;;;4785529;29;20045;-84
2021/06/09 03:39:18;;;;;;;11.70;10.52;;;16.80;92.10;;;;;;4775137;29;20065;-83
2021/06/09 03:41:48;;;;;;;12.20;10.63;;;16.80;92.20;;;;;;4777782;29;20385;-88
2021/06/09 03:44:19;;;;;;;11.90;10.70;;;16.80;92.20;;;;;;4792028;29;20066;-89
2021/06/09 03:46:46;;;;;;;11.83;10.63;;;16.90;92.30;;;;;;4804015;29;20054;-89
2021/06/09 03:49:15;;;;;;;11.40;10.30;;;16.90;92.30;;;;;;4778265;29;20054;-89
2021/06/09 03:51:42;;;;;;;12.07;10.88;;;16.90;92.70;;;;;;4802319;29;20043;-89
2021/06/09 03:54:10;;;;;;;13.80;12.40;;;16.90;92.40;;;;;;4774312;29;20403;-89
2021/06/09 03:56:41;;;;;;;12.50;11.20;;;16.90;92.50;;;;;;4777953;29;20050;-88
2021/06/09 03:59:09;;;;;;;12.07;10.80;;;16.90;92.60;;;;;;4806969;29;20055;-90
2021/06/09 04:01:40;;;;;;;12.43;11.23;;;16.90;92.60;;;;;;4794752;29;20047;-88
2021/06/09 04:04:09;;;;;;;13.18;11.88;;;17.00;92.60;;;;;;4776645;29;20034;-89
2021/06/09 04:06:42;;;;;;;12.48;10.38;;;17.00;92.60;;;;;;4782520;29;20046;-89
2021/06/09 04:09:12;;;;;;;10.70;9.63;;;17.00;92.60;;;;;;4778960;29;20050;-89
2021/06/09 04:11:39;;;;;;;12.48;11.20;;;17.00;92.60;;;;;;4800946;29;20054;-89
2021/06/09 04:14:09;;;;;;;12.68;11.38;;;17.10;92.60;;;;;;4763205;29;20047;-89
2021/06/09 04:16:37;;;;;;;12.32;11.13;;;17.10;92.60;;;;;;4791072;29;20527;-88
2021/06/09 04:19:08;;;;;;;13.13;10.93;;;17.20;92.60;;;;;;4808356;29;20034;-89
2021/06/09 04:21:34;;;;;;;13.95;11.82;;;17.20;92.70;;;;;;4786069;29;20038;-87
2021/06/09 04:24:01;;;;;;;12.15;10.95;;;17.30;92.60;;;;;;4768359;29;20042;-86
2021/06/09 04:26:29;;;;;;;14.75;13.25;;;17.30;92.60;;;;;;4764344;29;20518;-86
2021/06/09 04:28:57;;;;;;;13.32;12.05;;;17.40;92.60;;;;;;4792820;29;20062;-86
2021/06/09 04:31:25;;;;;;;14.20;12.55;;;17.50;92.70;;;;;;4789102;29;20054;-87
2021/06/09 04:33:56;;;;;;;15.25;13.70;;;17.50;92.60;;;;;;4767597;29;20066;-87
2021/06/09 04:36:23;;;;;;;13.88;12.40;;;17.60;92.60;;;;;;4783222;29;20038;-86
2021/06/09 04:38:50;;;;;;;15.90;14.30;;;17.70;92.60;;;;;;4780089;29;20055;-85
2021/06/09 04:41:18;;;;;;;14.68;13.23;;;17.80;92.60;;;;;;4777207;29;20054;-86
2021/06/09 04:43:46;;;;;;;16.60;14.90;;;17.90;92.50;;;;;;4795713;29;20055;-85
2021/06/09 04:46:23;;;;;;;16.65;14.75;;;18.00;92.50;;;;;;4811241;29;20051;-85
2021/06/09 04:49:02;;;;;;;16.67;15.00;;;18.10;92.50;;;;;;4790336;29;20062;-86
2021/06/09 04:51:31;;;;;;;16.90;15.20;;;18.30;92.40;;;;;;4791972;29;20080;-86
2021/06/09 04:53:58;;;;;;;16.83;15.13;;;18.40;92.30;;;;;;4800068;29;20050;-85
2021/06/09 04:56:29;;;;;;;16.70;14.98;;;18.50;92.20;;;;;;4793643;29;20407;-86
2021/06/09 04:58:56;;;;;;;18.00;16.10;;;18.70;92.10;;;;;;4800408;29;20059;-86
2021/06/09 05:01:22;;;;;;;17.23;15.52;;;18.80;92.00;;;;;;4775589;29;20058;-86
2021/06/09 05:03:49;;;;;;;17.85;16.05;;;18.90;91.90;;;;;;4804286;29;20062;-86
2021/06/09 05:06:15;;;;;;;19.77;17.73;;;19.10;91.80;;;;;;4777623;29;20054;-86
2021/06/09 05:08:42;;;;;;;19.65;17.55;;;19.20;91.70;;;;;;4789573;29;20066;-86
2021/06/09 05:11:15;;;;;;;19.65;17.58;;;19.30;91.60;;;;;;4780091;29;20049;-86
2021/06/09 05:13:44;;;;;;;19.88;17.90;;;19.40;91.50;;;;;;4790640;29;20058;-86
2021/06/09 05:16:14;;;;;;;19.15;17.35;;;19.60;91.40;;;;;;4805943;29;20483;-86
2021/06/09 05:18:52;;;;;;;18.48;16.65;;;19.70;91.30;;;;;;4812973;29;20046;-86
2021/06/09 05:21:21;;;;;;;17.65;15.75;;;19.80;91.20;;;;;;4798900;29;20049;-86
2021/06/09 05:23:52;;;;;;;20.60;18.45;;;19.90;91.10;;;;;;4812052;29;20059;-87
2021/06/09 05:26:20;;;;;;;20.27;18.20;;;20.00;91.00;;;;;;4793408;29;20046;-86
2021/06/09 05:29:00;;;;;;;21.42;19.23;;;20.10;90.90;;;;;;4801908;29;20506;-86
2021/06/09 05:31:28;;;;;;;20.83;18.77;;;20.30;90.90;;;;;;4793800;29;20042;-86
2021/06/09 05:33:55;;;;;;;16.25;14.45;;;20.40;90.70;;;;;;4801756;29;20051;-86
2021/06/09 05:36:23;;;;;;;23.67;21.27;;;20.50;90.50;;;;;;4767148;29;20985;-86
2021/06/09 05:38:50;;;;;;;24.83;22.33;;;20.60;90.30;;;;;;4811508;29;20055;-86
2021/06/09 05:41:17;;;;;;;20.52;18.48;;;20.70;90.20;;;;;;4811498;29;20038;-86
2021/06/09 05:43:44;;;;;;;21.25;19.02;;;20.90;90.10;;;;;;4774396;29;20061;-82
2021/06/09 05:46:10;;;;;;;21.00;18.90;;;20.90;89.80;;;;;;4788621;29;20061;-81
2021/06/09 05:48:39;;;;;;;22.88;20.58;;;21.10;89.60;;;;;;4788621;29;20062;-83
2021/06/09 05:51:08;;;;;;;20.88;18.85;;;21.20;89.40;;;;;;4800791;29;20057;-81
2021/06/09 05:53:35;;;;;;;17.77;15.98;;;21.30;89.20;;;;;;4777952;29;20081;-82
2021/06/09 05:56:02;;;;;;;18.63;16.73;;;21.60;89.00;;;;;;4806137;29;20058;-80
2021/06/09 05:58:28;;;;;;;21.20;19.08;;;21.70;88.60;;;;;;4808606;29;20687;-81
2021/06/09 06:00:58;;;;;;;20.35;18.33;;;22.00;88.10;;;;;;4776988;29;20805;-80
2021/06/09 06:03:26;;;;;;;20.70;18.70;;;22.30;87.50;;;;;;4793162;29;20478;-80
2021/06/09 06:05:59;;;;;;;19.02;17.00;;;22.60;86.50;;;;;;4806233;29;20473;-83
2021/06/09 06:08:26;;;;;;;18.77;16.95;;;22.80;85.80;;;;;;4796412;29;20050;-83
2021/06/09 06:10:54;;;;;;;20.30;18.40;;;23.00;85.20;;;;;;4808078;29;20053;-82
2021/06/09 06:13:25;;;;;;;20.33;18.33;;;23.20;84.80;;;;;;4794542;29;20046;-82
2021/06/09 06:15:56;;;;;;;21.15;19.10;;;23.30;84.30;;;;;;4800608;29;20388;-82
2021/06/09 06:18:39;;;;;;;19.52;17.67;;;23.50;83.70;;;;;;4788068;29;20504;-81
2021/06/09 06:21:10;;;;;;;;;;;23.60;83.20;;;;;;4803880;29;20069;-82
2021/06/09 06:23:38;;;;;;;17.58;15.98;;;23.80;82.90;;;;;;4824902;29;19924;-82
2021/06/09 06:26:06;;;;;;;19.63;17.75;;;24.00;82.30;;;;;;4787902;29;20046;-81
2021/06/09 06:28:33;;;;;;;20.42;18.52;;;24.20;81.30;;;;;;4794845;29;20057;-81
2021/06/09 06:31:01;;;;;;;18.13;16.38;;;24.30;80.60;;;;;;4810038;29;20054;-83
2021/06/09 06:33:29;;;;;;;17.95;16.08;;;24.40;80.50;;;;;;4793983;29;20049;-83
2021/06/09 06:35:59;;;;;;;21.30;19.05;;;24.50;80.20;;;;;;4775316;29;20058;-83
2021/06/09 06:38:26;;;;;;;21.02;19.10;;;24.50;79.90;;;;;;4795554;29;20050;-84
2021/06/09 06:40:53;;;;;;;18.65;16.77;;;24.40;79.60;;;;;;4810830;29;20289;-83
2021/06/09 06:43:21;;;;;;;20.15;18.05;;;24.50;79.70;;;;;;4790785;29;20043;-82
2021/06/09 06:45:47;;;;;;;17.85;16.05;;;24.50;79.30;;;;;;4799518;29;20058;-85
2021/06/09 06:48:15;;;;;;;18.75;17.05;;;24.60;79.20;;;;;;4811698;29;20042;-84
2021/06/09 06:50:43;;;;;;;20.50;18.58;;;24.60;78.60;;;;;;4794224;29;20056;-83
2021/06/09 06:53:10;;;;;;;19.88;17.98;;;24.70;78.40;;;;;;4778227;29;20483;-85
2021/06/09 06:55:36;;;;;;;22.70;20.42;;;24.80;78.00;;;;;;4784057;29;20046;-84
2021/06/09 06:58:04;;;;;;;22.88;20.60;;;24.90;77.50;;;;;;4788085;29;20055;-84
2021/06/09 07:00:32;;;;;;;18.63;16.58;;;24.90;76.80;;;;;;4781547;29;20042;-83
2021/06/09 07:03:02;;;;;;;20.20;18.08;;;25.00;76.80;;;;;;4781295;29;20055;-82
2021/06/09 07:05:32;;;;;;;17.92;16.13;;;25.10;76.60;;;;;;4787497;29;20476;-80
2021/06/09 07:08:01;;;;;;;16.25;14.73;;;25.30;76.60;;;;;;4782837;29;20422;-80
2021/06/09 07:10:29;;;;;;;16.55;14.77;;;25.40;76.20;;;;;;4781762;29;20043;-79
2021/06/09 07:13:01;;;;;;;14.55;13.25;;;25.70;75.70;;;;;;4796035;29;20066;-79
2021/06/09 07:15:28;;;;;;;18.17;16.35;;;25.90;75.50;;;;;;4794203;29;20042;-79
2021/06/09 07:17:58;;;;;;;16.23;14.70;;;26.00;74.50;;;;;;4798281;29;20035;-82
2021/06/09 07:20:27;;;;;;;17.92;16.33;;;26.20;74.10;;;;;;4781111;29;20050;-82
2021/06/09 07:22:56;;;;;;;15.70;14.00;;;26.30;73.80;;;;;;4799006;29;20049;-81
2021/06/09 07:25:25;;;;;;;16.17;14.70;;;26.50;73.50;;;;;;4761493;29;20522;-81
2021/06/09 07:27:53;;;;;;;14.00;12.70;;;26.60;73.10;;;;;;4791244;29;20043;-80
2021/06/09 07:30:25;;;;;;;12.40;11.27;;;26.80;72.50;;;;;;4801986;29;20053;-81
2021/06/09 07:32:51;;;;;;;15.13;12.38;;;26.90;72.20;;;;;;4802160;29;20046;-82
2021/06/09 07:35:18;;;;;;;12.60;11.40;;;27.10;71.60;;;;;;4769462;29;20039;-84
2021/06/09 07:37:51;;;;;;;13.93;12.70;;;27.10;70.70;;;;;;4766956;29;20380;-82
2021/06/09 07:40:29;;;;;;;12.95;11.65;;;27.20;70.10;;;;;;4773062;29;20039;-81
2021/06/09 07:43:06;;;;;;;10.50;9.50;;;27.30;69.80;;;;;;4796243;29;20043;-80
2021/06/09 07:45:33;;;;;;;12.43;11.25;;;27.30;70.30;;;;;;4773222;29;20046;-81
2021/06/09 07:48:01;;;;;;;13.10;11.77;;;27.30;69.50;;;;;;4787027;29;20407;-79
2021/06/09 07:50:36;;;;;;;12.98;11.68;;;27.30;68.80;;;;;;4798577;29;20077;-81
2021/06/09 07:53:10;;;;;;;9.70;8.90;;;27.30;68.20;;;;;;4778159;29;20039;-82
2021/06/09 07:55:47;;;;;;;9.65;8.85;;;27.20;68.40;;;;;;4799672;29;20053;-81
2021/06/09 07:58:21;;;;;;;9.90;8.90;;;27.20;68.40;;;;;;4770830;29;20066;-80
2021/06/09 08:00:51;;;;;;;12.48;11.20;;;27.20;68.10;;;;;;4785384;29;20035;-80
2021/06/09 08:03:18;;;;;;;9.48;8.48;;;27.20;67.50;;;;;;4790913;29;20058;-82
2021/06/09 08:05:45;;;;;;;9.77;8.77;;;27.20;67.60;;;;;;4788255;29;20102;-84
2021/06/09 08:08:16;;;;;;;7.70;7.00;;;27.20;67.50;;;;;;4776958;29;20038;-87
2021/06/09 08:10:46;;;;;;;8.55;7.75;;;27.40;67.70;;;;;;4781546;29;20047;-85
2021/06/09 08:13:13;;;;;;;8.00;7.30;;;27.60;67.30;;;;;;4802522;29;20061;-83
2021/06/09 08:15:41;;;;;;;10.98;9.93;;;27.70;66.90;;;;;;4803570;29;20082;-85
2021/06/09 08:18:12;;;;;;;9.52;8.57;;;27.80;66.00;;;;;;4791590;29;20399;-82
2021/06/09 08:20:51;;;;;;;9.63;8.63;;;27.90;65.90;;;;;;4810639;29;20034;-86
2021/06/09 08:23:18;;;;;;;8.15;7.40;;;28.00;66.10;;;;;;4800625;29;20054;-85
2021/06/09 08:25:48;;;;;;;10.35;9.30;;;28.10;66.00;;;;;;4791800;29;20046;-83
2021/06/09 08:28:14;;;;;;;8.68;7.97;;;28.20;65.40;;;;;;4804474;29;20061;-85
2021/06/09 08:30:41;;;;;;;10.60;9.35;;;28.40;65.10;;;;;;4802086;29;20477;-86
2021/06/09 08:33:08;;;;;;;11.70;9.55;;;28.40;64.90;;;;;;4793950;29;20384;-87
2021/06/09 08:35:35;;;;;;;10.90;10.00;;;28.50;64.60;;;;;;4798308;29;20050;-88
2021/06/09 08:38:32;;;;;;;10.85;9.95;;;28.50;64.50;;;;;;4772102;29;20038;-86
2021/06/09 08:40:59;;;;;;;9.65;8.75;;;28.60;64.10;;;;;;4782522;29;20062;-86
2021/06/09 08:43:26;;;;;;;11.75;9.20;;;28.70;64.00;;;;;;4799461;29;20396;-86
2021/06/09 08:45:55;;;;;;;10.98;9.88;;;28.90;64.00;;;;;;4781593;29;20038;-87
2021/06/09 08:48:23;;;;;;;10.45;9.13;;;29.00;63.90;;;;;;4783965;29;21110;-86
2021/06/09 08:50:50;;;;;;;11.60;10.50;;;29.10;63.00;;;;;;4768846;29;20051;-80
2021/06/09 08:53:19;;;;;;;9.48;8.52;;;29.10;62.10;;;;;;4804897;29;20054;-85
2021/06/09 08:55:47;;;;;;;9.90;9.05;;;29.10;61.90;;;;;;4783799;29;20043;-85
2021/06/09 08:58:14;;;;;;;8.05;7.25;;;29.20;62.10;;;;;;4800624;29;20070;-85
2021/06/09 09:00:43;;;;;;;9.27;8.35;;;29.40;61.70;;;;;;4767762;29;20055;-80
2021/06/09 09:03:09;;;;;;;10.43;9.55;;;29.50;61.20;;;;;;4800651;29;20043;-82
2021/06/09 09:05:36;;;;;;;10.18;9.27;;;29.60;60.00;;;;;;4767608;29;20510;-82
2021/06/09 09:08:04;;;;;;;8.30;7.60;;;29.60;59.30;;;;;;4771256;29;20058;-81
2021/06/09 09:10:31;;;;;;;7.30;6.60;;;29.60;58.70;;;;;;4795792;29;20062;-80
2021/06/09 09:12:58;;;;;;;8.25;7.55;;;29.70;58.70;;;;;;4802765;29;20067;-81
2021/06/09 09:15:25;;;;;;;7.90;7.10;;;29.90;58.50;;;;;;4803729;29;20063;-82
2021/06/09 09:17:57;;;;;;;7.53;6.78;;;30.00;57.60;;;;;;4802126;29;20057;-79
2021/06/09 09:20:23;;;;;;;9.60;7.45;;;30.00;56.80;;;;;;4770644;29;20045;-82
2021/06/09 09:22:52;;;;;;;8.30;6.43;;;30.00;56.40;;;;;;4788603;29;20053;-81
2021/06/09 09:25:21;;;;;;;8.10;7.38;;;30.00;55.70;;;;;;4802234;29;20054;-80
2021/06/09 09:28:23;;;;;;;8.60;7.03;;;30.10;55.40;;;;;;4767773;29;20051;-80
2021/06/09 09:30:50;;;;;;;11.43;9.32;;;30.20;55.70;;;;;;4764057;29;20058;-81
2021/06/09 09:33:18;;;;;;;7.47;6.80;;;30.40;55.40;;;;;;4770399;29;20043;-81
2021/06/09 09:35:47;;;;;;;6.35;5.80;;;30.40;55.00;;;;;;4785937;29;20598;-82
2021/06/09 09:38:23;;;;;;;6.80;5.72;;;30.50;55.00;;;;;;4801787;29;20049;-81
2021/06/09 09:41:11;;;;;;;8.90;8.00;;;30.50;54.20;;;;;;4786907;29;20058;-81
2021/06/09 09:44:12;;;;;;;11.43;10.52;;;30.60;54.10;;;;;;4799054;29;20069;-81
2021/06/09 09:46:54;;;;;;;10.50;9.13;;;30.60;53.80;;;;;;4719893;30;20060;-81
2021/06/09 09:49:22;;;;;;;10.88;9.85;;;30.50;54.20;;;;;;4796321;29;20418;-81
2021/06/09 09:51:53;;;;;;;11.10;10.05;;;30.50;54.70;;;;;;4807117;29;20177;-79
2021/06/09 09:54:40;;;;;;;8.52;7.80;;;30.50;54.20;;;;;;4803045;29;21413;-76
2021/06/09 09:57:11;;;;;;;12.82;11.52;;;30.50;54.60;;;;;;4800641;29;20046;-77
2021/06/09 09:59:38;;;;;;;9.23;8.32;;;30.50;53.00;;;;;;4797011;29;20065;-76
2021/06/09 10:02:16;;;;;;;8.32;7.63;;;30.40;53.80;;;;;;4797922;29;20055;-78
2021/06/09 10:04:49;;;;;;;9.75;8.85;;;30.50;54.00;;;;;;4800886;29;20050;-78
2021/06/09 10:07:16;;;;;;;8.88;8.07;;;30.50;53.20;;;;;;4784736;29;20054;-78
2021/06/09 10:09:44;;;;;;;10.38;8.90;;;30.20;53.40;;;;;;4805310;29;20054;-78
2021/06/09 10:12:13;;;;;;;9.13;8.32;;;30.20;53.50;;;;;;4809016;29;20046;-78
2021/06/09 10:14:45;;;;;;;11.20;10.10;;;30.30;53.60;;;;;;4787457;29;20490;-77
2021/06/09 10:17:19;;;;;;;9.57;8.70;;;30.50;52.30;;;;;;4805522;29;20034;-78
2021/06/09 10:19:52;;;;;;;4.85;4.38;;;30.50;51.50;;;;;;4784862;29;20050;-78
2021/06/09 10:22:22;;;;;;;6.63;6.13;;;30.70;51.80;;;;;;4809216;29;20053;-78
2021/06/09 10:24:49;;;;;;;6.50;5.53;;;31.00;51.10;;;;;;4808375;29;20038;-79
2021/06/09 10:27:18;;;;;;;5.30;4.90;;;31.20;50.00;;;;;;4807064;29;20046;-78
2021/06/09 10:29:45;;;;;;;5.35;4.85;;;31.30;49.70;;;;;;4793465;29;20049;-79
2021/06/09 10:32:16;;;;;;;6.88;5.53;;;31.60;49.70;;;;;;4794088;29;20042;-77
2021/06/09 10:34:44;;;;;;;6.72;6.13;;;31.70;48.30;;;;;;4800933;29;20051;-78
2021/06/09 10:37:10;;;;;;;5.70;4.32;;;31.90;48.90;;;;;;4797121;29;20050;-76
2021/06/09 10:39:40;;;;;;;5.85;4.50;;;32.10;47.40;;;;;;4793274;29;20038;-76
2021/06/09 10:42:13;;;;;;;3.67;3.38;;;32.30;47.50;;;;;;4799712;29;20046;-77
2021/06/09 10:44:45;;;;;;;3.85;3.55;;;32.50;46.20;;;;;;4799622;29;20483;-76
2021/06/09 10:47:19;;;;;;;6.18;5.57;;;32.70;46.10;;;;;;4797843;29;20046;-77
2021/06/09 10:49:46;;;;;;;3.63;3.33;;;32.90;45.60;;;;;;4797887;29;20062;-78
2021/06/09 10:52:13;;;;;;;4.95;3.67;;;33.00;45.20;;;;;;4795761;29;20066;-77
2021/06/09 10:54:47;;;;;;;3.90;3.47;;;33.30;45.10;;;;;;4798642;29;20050;-79
2021/06/09 10:57:14;;;;;;;3.03;2.72;;;33.60;44.50;;;;;;4798706;29;20065;-77
2021/06/09 10:59:41;;;;;;;4.03;3.58;;;33.80;43.90;;;;;;4799541;29;20054;-78
2021/06/09 11:02:19;;;;;;;4.63;3.70;;;34.00;43.00;;;;;;4785480;29;20050;-77
2021/06/09 11:04:49;;;;;;;5.25;4.30;;;34.20;42.90;;;;;;4802409;29;20376;-78
2021/06/09 11:07:34;;;;;;;5.43;4.68;;;34.40;42.40;;;;;;4802990;29;20046;-78
2021/06/09 11:10:06;;;;;;;5.72;5.15;;;34.70;41.50;;;;;;4802445;29;20050;-77
2021/06/09 11:12:42;;;;;;;5.82;4.97;;;34.90;41.30;;;;;;4803651;29;20067;-76
2021/06/09 11:15:14;;;;;;;8.35;5.53;;;35.00;41.30;;;;;;4802591;29;20563;-77
2021/06/09 11:17:48;;;;;;;5.03;4.63;;;35.20;41.10;;;;;;4802283;29;20534;-78
2021/06/09 11:20:20;;;;;;;7.00;6.43;;;35.40;41.10;;;;;;4800611;29;20054;-79
2021/06/09 11:22:55;;;;;;;12.18;10.85;;;35.60;40.60;;;;;;4807388;29;20398;-80
2021/06/09 11:25:51;;;;;;;8.25;7.45;;;35.80;40.80;;;;;;4786689;29;20410;-81
2021/06/09 11:28:20;;;;;;;7.80;7.10;;;35.90;40.30;;;;;;4783297;29;20065;-81
2021/06/09 11:30:55;;;;;;;12.48;6.03;;;36.20;40.00;;;;;;4805010;29;20490;-82
2021/06/09 11:33:41;;;;;;;6.72;5.97;;;36.30;39.90;;;;;;4790714;29;20050;-82
2021/06/09 11:36:31;;;;;;;5.88;4.85;;;36.50;39.40;;;;;;4776153;29;20046;-82
2021/06/09 11:39:14;;;;;;;4.55;4.15;;;36.50;38.80;;;;;;4795073;29;20069;-82
2021/06/09 11:41:43;;;;;;;4.57;4.22;;;36.70;38.50;;;;;;4775881;29;20038;-82
2021/06/09 11:44:37;;;;;;;5.55;5.03;;;36.80;38.40;;;;;;4801601;29;20785;-82
2021/06/09 11:47:25;;;;;;;4.40;3.67;;;36.90;37.50;;;;;;4790086;29;20054;-81
2021/06/09 11:50:12;;;;;;;4.57;4.18;;;37.10;37.10;;;;;;4789253;29;20062;-82
2021/06/09 11:53:12;;;;;;;5.10;3.67;;;37.20;36.90;;;;;;4809020;29;20046;-82
2021/06/09 11:55:43;;;;;;;4.20;3.78;;;37.30;37.20;;;;;;4794569;29;20038;-82
2021/06/09 11:58:11;;;;;;;;;;;37.40;37.00;;;;;;4792808;29;20039;-81
2021/06/09 12:01:12;;;;;;;5.00;4.50;;;37.50;36.50;;;;;;4781568;29;19920;-82
2021/06/09 12:03:40;;;;;;;5.78;5.25;;;37.50;36.40;;;;;;4822095;29;20057;-82
2021/06/09 12:06:19;;;;;;;4.43;3.92;;;37.50;36.00;;;;;;4760204;29;20050;-82
2021/06/09 12:08:50;;;;;;;4.03;3.72;;;37.40;36.80;;;;;;4808744;29;20059;-82
2021/06/09 12:11:18;;;;;;;3.72;2.90;;;37.30;36.10;;;;;;4812644;29;20050;-82
2021/06/09 12:13:45;;;;;;;4.57;4.28;;;37.20;35.90;;;;;;4783387;29;20046;-82
2021/06/09 12:16:15;;;;;;;6.40;3.88;;;37.30;36.10;;;;;;4793834;29;20467;-82
2021/06/09 12:18:46;;;;;;;4.35;4.00;;;37.60;36.30;;;;;;4808283;29;20050;-82
2021/06/09 12:21:16;;;;;;;4.97;2.97;;;38.00;36.00;;;;;;4801141;29;20030;-82
2021/06/09 12:23:54;;;;;;;4.57;3.95;;;38.50;35.60;;;;;;4786153;29;20039;-82
2021/06/09 12:26:21;;;;;;;5.07;3.38;;;38.90;34.90;;;;;;4801012;29;20043;-81
2021/06/09 12:28:58;;;;;;;4.65;3.25;;;39.00;34.70;;;;;;4786665;29;20050;-82
2021/06/09 12:31:25;;;;;;;4.03;3.50;;;39.00;34.10;;;;;;4800252;29;20043;-82
2021/06/09 12:33:52;;;;;;;4.93;3.67;;;38.90;33.80;;;;;;4798448;29;20058;-82
2021/06/09 12:36:19;;;;;;;4.65;4.07;;;39.10;33.30;;;;;;4787791;29;20046;-82
2021/06/09 12:38:45;;;;;;;5.03;3.50;;;39.40;32.70;;;;;;4783688;29;20055;-81
2021/06/09 12:41:12;;;;;;;6.32;3.42;;;39.40;33.00;;;;;;4805881;29;20062;-82
2021/06/09 12:43:40;;;;;;;3.47;2.97;;;39.70;32.60;;;;;;4761796;29;20049;-83
2021/06/09 12:46:07;;;;;;;4.13;3.47;;;39.80;32.30;;;;;;4807845;29;20061;-82
2021/06/09 12:48:37;;;;;;;3.13;2.67;;;40.00;32.10;;;;;;4791207;29;20065;-82
2021/06/09 12:51:05;;;;;;;3.40;3.03;;;40.20;32.30;;;;;;4806531;29;20845;-82
2021/06/09 12:53:34;;;;;;;3.67;3.00;;;40.40;32.00;;;;;;4789936;29;20039;-82
2021/06/09 12:56:07;;;;;;;4.82;4.43;;;40.60;31.30;;;;;;4808223;29;20047;-82
2021/06/09 12:58:35;;;;;;;3.03;2.70;;;40.90;30.60;;;;;;4806807;29;20043;-82